createdAt,value
2019-06-26T00:00:28.291Z,70.83
2019-06-26T00:01:32.877Z,70.92
2019-06-26T00:02:38.392Z,70.54
2019-06-26T00:03:44.025Z,71.22
2019-06-26T00:04:49.533Z,71.70
2019-06-26T00:05:55.130Z,70.73
2019-06-26T00:07:00.631Z,71.99
2019-06-26T00:08:06.190Z,71.41
2019-06-26T00:09:11.792Z,70.63
2019-06-26T00:10:17.342Z,70.54
2019-06-26T00:11:22.863Z,71.99
2019-06-26T00:12:28.429Z,71.80
2019-06-26T00:13:33.994Z,71.41
2019-06-26T00:14:39.542Z,71.60
2019-06-26T00:15:45.107Z,71.70
2019-06-26T00:16:50.667Z,71.12
2019-06-26T00:17:56.235Z,71.41
2019-06-26T00:19:01.784Z,71.60
2019-06-26T00:20:07.341Z,71.80
2019-06-26T00:21:12.917Z,71.28
2019-06-26T00:22:18.472Z,72.09
2019-06-26T00:23:24.030Z,71.37
2019-06-26T00:24:29.583Z,71.41
2019-06-26T00:25:37.764Z,71.66
2019-06-26T00:26:40.714Z,72.63
2019-06-26T00:27:46.270Z,71.89
2019-06-26T00:28:51.824Z,71.99
2019-06-26T00:29:57.391Z,71.37
2019-06-26T00:31:02.990Z,71.76
2019-06-26T00:32:08.513Z,71.76
2019-06-26T00:33:14.070Z,72.44
2019-06-26T00:34:19.628Z,71.76
2019-06-26T00:35:25.205Z,71.89
2019-06-26T00:36:30.749Z,72.34
2019-06-26T00:37:36.310Z,73.11
2019-06-26T00:38:41.865Z,72.53
2019-06-26T00:39:47.427Z,71.95
2019-06-26T00:40:52.987Z,71.76
2019-06-26T00:41:58.564Z,72.53
2019-06-26T00:43:04.113Z,72.53
2019-06-26T00:44:09.670Z,72.15
2019-06-26T00:45:15.230Z,72.44
2019-06-26T00:46:20.790Z,72.92
2019-06-26T00:47:26.415Z,72.34
2019-06-26T00:48:31.904Z,72.44
2019-06-26T00:49:37.464Z,73.02
2019-06-26T00:50:43.049Z,73.11
2019-06-26T00:51:48.589Z,72.92
2019-06-26T00:52:54.183Z,73.02
2019-06-26T00:53:59.806Z,72.05
2019-06-26T00:55:05.272Z,72.83
2019-06-26T00:56:10.826Z,72.34
2019-06-26T00:57:16.379Z,73.02
2019-06-26T00:58:21.949Z,73.31
2019-06-26T00:59:27.504Z,73.21
2019-06-26T01:00:33.063Z,72.92
2019-06-26T01:01:38.622Z,73.31
2019-06-26T01:02:44.185Z,72.92
2019-06-26T01:03:50.286Z,73.21
2019-06-26T01:04:55.307Z,72.92
2019-06-26T01:06:00.867Z,73.11
2019-06-26T01:07:06.433Z,72.83
2019-06-26T01:08:11.985Z,73.60
2019-06-26T01:09:17.541Z,73.95
2019-06-26T01:10:23.100Z,73.11
2019-06-26T01:11:28.661Z,73.11
2019-06-26T01:12:34.241Z,73.60
2019-06-26T01:13:39.777Z,72.73
2019-06-26T01:14:45.342Z,73.79
2019-06-26T01:15:50.903Z,73.27
2019-06-26T01:16:56.460Z,73.66
2019-06-26T01:18:02.018Z,74.38
2019-06-26T01:19:07.576Z,73.37
2019-06-26T01:20:13.152Z,73.50
2019-06-26T01:21:18.699Z,73.57
2019-06-26T01:22:24.258Z,74.24
2019-06-26T01:23:29.821Z,73.18
2019-06-26T01:24:35.371Z,74.15
2019-06-26T01:25:40.931Z,73.85
2019-06-26T01:26:46.491Z,73.66
2019-06-26T01:27:52.050Z,73.66
2019-06-26T01:28:57.647Z,73.95
2019-06-26T01:30:03.573Z,73.27
2019-06-26T01:31:08.736Z,74.53
2019-06-26T01:32:14.319Z,73.27
2019-06-26T01:33:19.852Z,74.24
2019-06-26T01:34:25.411Z,73.57
2019-06-26T01:35:30.967Z,74.15
2019-06-26T01:36:36.549Z,73.75
2019-06-26T01:37:42.097Z,73.66
2019-06-26T01:38:47.704Z,74.43
2019-06-26T01:39:53.211Z,73.66
2019-06-26T01:40:58.812Z,72.98
2019-06-26T01:42:04.385Z,74.05
2019-06-26T01:43:09.924Z,73.57
2019-06-26T01:44:15.764Z,74.43
2019-06-26T01:45:21.019Z,74.05
2019-06-26T01:46:26.570Z,74.05
2019-06-26T01:47:32.121Z,74.43
2019-06-26T01:48:37.684Z,74.53
2019-06-26T01:49:43.292Z,74.01
2019-06-26T01:50:48.800Z,73.66
2019-06-26T01:51:54.356Z,74.49
2019-06-26T01:52:59.924Z,74.43
2019-06-26T01:54:05.576Z,74.11
2019-06-26T01:55:11.106Z,74.15
2019-06-26T01:56:16.624Z,74.63
2019-06-26T01:57:22.172Z,74.11
2019-06-26T01:58:27.748Z,74.40
2019-06-26T01:59:33.278Z,74.11
2019-06-26T02:00:38.837Z,74.63
2019-06-26T02:01:44.390Z,74.15
2019-06-26T02:02:49.965Z,74.24
2019-06-26T02:03:55.512Z,74.24
2019-06-26T02:05:01.066Z,74.88
2019-06-26T02:06:06.661Z,74.59
2019-06-26T02:07:12.188Z,74.30
2019-06-26T02:08:17.753Z,74.49
2019-06-26T02:09:23.307Z,74.40
2019-06-26T02:10:29.012Z,74.73
2019-06-26T02:11:34.444Z,74.21
2019-06-26T02:12:40.006Z,74.49
2019-06-26T02:13:45.560Z,74.21
2019-06-26T02:14:51.105Z,74.05
2019-06-26T02:15:56.693Z,73.85
2019-06-26T02:17:02.268Z,73.63
2019-06-26T02:18:07.788Z,74.11
2019-06-26T02:19:13.346Z,74.69
2019-06-26T02:20:19.001Z,74.11
2019-06-26T02:21:24.471Z,74.40
2019-06-26T02:22:30.029Z,74.59
2019-06-26T02:23:35.577Z,74.88
2019-06-26T02:24:41.143Z,74.49
2019-06-26T02:25:46.699Z,74.88
2019-06-26T02:26:52.257Z,74.49
2019-06-26T02:27:57.816Z,74.11
2019-06-26T02:29:03.375Z,74.69
2019-06-26T02:30:08.941Z,74.88
2019-06-26T02:31:14.572Z,75.07
2019-06-26T02:32:20.055Z,74.49
2019-06-26T02:33:25.606Z,74.98
2019-06-26T02:34:31.170Z,74.88
2019-06-26T02:35:36.726Z,74.40
2019-06-26T02:36:42.292Z,74.79
2019-06-26T02:37:47.862Z,75.07
2019-06-26T02:38:53.407Z,74.79
2019-06-26T02:39:58.960Z,74.88
2019-06-26T02:41:04.522Z,74.69
2019-06-26T02:42:10.102Z,74.79
2019-06-26T02:43:15.658Z,74.98
2019-06-26T02:44:21.200Z,75.27
2019-06-26T02:45:26.768Z,74.69
2019-06-26T02:46:32.315Z,74.40
2019-06-26T02:47:37.915Z,74.69
2019-06-26T02:48:43.433Z,74.79
2019-06-26T02:49:49.008Z,74.40
2019-06-26T02:50:54.557Z,74.30
2019-06-26T02:52:00.138Z,74.40
2019-06-26T02:53:05.706Z,74.49
2019-06-26T02:54:11.235Z,74.49
2019-06-26T02:55:16.788Z,74.21
2019-06-26T02:56:22.350Z,74.40
2019-06-26T02:57:27.915Z,74.49
2019-06-26T02:58:33.471Z,74.49
2019-06-26T02:59:39.054Z,74.98
2019-06-26T03:00:44.581Z,74.40
2019-06-26T03:01:50.147Z,75.75
2019-06-26T03:02:55.704Z,75.46
2019-06-26T03:04:01.260Z,74.59
2019-06-26T03:05:06.849Z,75.17
2019-06-26T03:06:12.379Z,74.88
2019-06-26T03:07:17.935Z,75.07
2019-06-26T03:08:23.512Z,75.95
2019-06-26T20:04:56.446Z,72.42
2019-06-26T20:06:01.971Z,73.09
2019-06-26T20:08:01.919Z,72.32
2019-06-26T20:09:15.129Z,72.13
2019-06-26T20:11:07.411Z,71.84
2019-06-26T20:12:12.938Z,72.32
2019-06-26T20:14:12.887Z,71.94
2019-06-26T20:15:18.430Z,71.36
2019-06-26T20:17:17.429Z,71.40
2019-06-26T20:18:22.953Z,70.82
2019-06-26T20:20:23.094Z,70.43
2019-06-26T20:21:28.447Z,71.30
2019-06-26T20:23:27.433Z,70.72
2019-06-26T20:24:43.415Z,70.09
2019-06-26T20:26:32.929Z,69.31
2019-06-26T20:27:38.545Z,69.51
2019-06-26T20:29:38.465Z,69.41
2019-06-26T20:30:44.001Z,68.74
2019-06-26T20:32:43.935Z,68.84
2019-06-26T20:33:49.484Z,69.02
2019-06-26T20:35:49.466Z,68.87
2019-06-26T20:36:54.995Z,68.87
2019-06-26T20:39:01.652Z,69.25
2019-06-26T20:39:59.514Z,69.15
2019-06-26T20:41:59.509Z,69.51
2019-06-26T20:43:05.036Z,69.41
2019-06-26T20:45:05.003Z,69.35
2019-06-26T20:46:10.553Z,69.35
2019-06-26T20:48:10.548Z,68.77
2019-06-26T20:49:16.059Z,69.06
2019-06-26T20:51:16.018Z,69.15
2019-06-26T20:52:21.572Z,68.38
2019-06-26T20:54:38.007Z,68.38
2019-06-26T20:55:43.540Z,68.38
2019-06-26T20:57:42.503Z,68.00
2019-06-26T20:58:48.072Z,68.00
2019-06-26T20:59:53.606Z,69.15
2019-06-26T21:00:59.164Z,68.10
2019-06-26T21:02:04.780Z,68.58
2019-06-26T21:03:10.294Z,68.48
2019-06-26T21:04:15.830Z,68.87
2019-06-26T21:05:21.385Z,68.48
2019-06-26T21:06:26.936Z,68.38
2019-06-26T21:07:32.499Z,69.15
2019-06-26T21:08:38.065Z,68.96
2019-06-26T21:09:43.601Z,69.15
2019-06-26T21:10:49.314Z,68.96
2019-06-26T21:11:54.713Z,68.93
2019-06-26T21:13:00.275Z,68.84
2019-06-26T21:14:05.826Z,69.12
2019-06-26T21:15:11.382Z,69.54
2019-06-26T21:16:16.935Z,68.48
2019-06-26T21:17:25.542Z,69.06
2019-06-26T21:18:28.054Z,68.58
2019-06-26T21:19:33.601Z,68.26
2019-06-26T21:20:39.158Z,68.38
2019-06-26T21:21:44.721Z,68.19
2019-06-26T21:22:50.276Z,68.35
2019-06-26T21:23:55.878Z,67.71
2019-06-26T21:25:16.863Z,67.68
2019-06-26T21:26:06.944Z,67.77
2019-06-26T21:27:12.510Z,68.06
2019-06-26T21:28:18.056Z,67.77
2019-06-26T21:29:23.623Z,67.77
2019-06-26T21:30:29.180Z,67.87
2019-06-26T21:31:34.719Z,68.26
2019-06-26T21:32:40.276Z,67.97
2019-06-26T21:33:45.858Z,68.16
2019-06-26T21:34:51.388Z,67.77
2019-06-26T21:35:56.983Z,67.58
2019-06-26T21:37:02.502Z,68.26
2019-06-26T21:38:08.060Z,67.68
2019-06-26T21:40:35.742Z,67.97
2019-06-26T21:41:41.264Z,67.58
2019-06-26T21:42:46.819Z,67.83
2019-06-26T21:43:52.375Z,68.26
2019-06-26T21:44:57.931Z,68.54
2019-06-26T21:46:03.495Z,68.35
2019-06-26T21:47:09.044Z,68.03
2019-06-26T21:48:14.595Z,68.41
2019-06-26T21:49:20.149Z,67.83
2019-06-26T21:50:28.685Z,67.65
2019-06-26T21:51:31.256Z,67.55
2019-06-26T21:52:36.813Z,68.22
2019-06-26T21:53:42.371Z,68.22
2019-06-26T21:54:47.935Z,67.74
2019-06-26T21:55:53.576Z,67.74
2019-06-26T21:56:59.037Z,68.32
2019-06-26T21:58:04.603Z,67.65
2019-06-26T21:59:10.139Z,67.74
2019-06-26T22:00:15.747Z,67.65
2019-06-26T22:01:21.255Z,67.65
2019-06-26T22:02:26.811Z,67.83
2019-06-26T22:03:32.364Z,67.45
2019-06-26T22:04:37.914Z,67.65
2019-06-26T22:05:43.473Z,67.07
2019-06-26T22:06:49.026Z,67.55
2019-06-26T22:07:54.584Z,67.65
2019-06-26T22:09:00.195Z,67.83
2019-06-26T22:10:05.699Z,68.03
2019-06-26T22:11:11.317Z,67.55
2019-06-26T22:12:16.809Z,67.93
2019-06-26T22:13:22.374Z,67.74
2019-06-26T22:14:27.914Z,67.65
2019-06-26T22:15:33.473Z,67.16
2019-06-26T22:16:39.029Z,67.55
2019-06-26T22:17:44.587Z,67.65
2019-06-26T22:18:50.146Z,67.74
2019-06-26T22:19:55.689Z,67.26
2019-06-26T22:21:01.254Z,67.26
2019-06-26T22:22:06.808Z,67.93
2019-06-26T22:23:12.358Z,67.55
2019-06-26T22:24:25.606Z,67.45
2019-06-26T22:26:17.895Z,67.74
2019-06-26T22:27:23.424Z,67.74
2019-06-26T22:29:23.413Z,67.42
2019-06-26T22:30:28.940Z,67.65
2019-06-26T22:32:28.895Z,67.13
2019-06-26T22:33:34.431Z,67.13
2019-06-26T22:35:35.406Z,67.51
2019-06-26T22:36:51.014Z,67.42
2019-06-26T22:40:15.053Z,67.61
2019-06-26T22:41:20.573Z,67.61
2019-06-26T22:43:20.536Z,67.99
2019-06-26T22:44:26.084Z,67.71
2019-06-26T22:46:25.072Z,67.71
2019-06-26T22:47:30.596Z,67.51
2019-06-26T22:49:29.611Z,67.51
2019-06-26T22:50:35.162Z,67.51
